createdAt,value
2023-02-18T00:01:00.209Z,101843.25
2023-02-18T00:03:30.301Z,101846.19
2023-02-18T00:05:57.156Z,101835.44
2023-02-18T00:08:23.585Z,101846.19
2023-02-18T00:10:50.223Z,101836.00
2023-02-18T00:13:16.641Z,101837.41
2023-02-18T00:15:43.075Z,101828.06
2023-02-18T00:18:09.617Z,101823.69
2023-02-18T00:20:39.095Z,101841.69
2023-02-18T00:23:05.499Z,101838.13
2023-02-18T00:25:31.908Z,101829.97
2023-02-18T00:27:58.273Z,101830.78
2023-02-18T00:30:24.787Z,101822.16
2023-02-18T00:32:51.293Z,101831.03
2023-02-18T00:35:17.789Z,101827.72
2023-02-18T00:37:44.292Z,101834.09
2023-02-18T00:40:11.050Z,101821.91
2023-02-18T00:42:37.722Z,101806.25
2023-02-18T00:45:04.568Z,101801.97
2023-02-18T00:47:31.023Z,101799.47
2023-02-18T00:49:57.538Z,101797.34
2023-02-18T00:52:23.915Z,101791.56
2023-02-18T00:54:50.615Z,101791.09
2023-02-18T00:57:16.970Z,101794.03
2023-02-18T00:59:43.468Z,101791.91
2023-02-18T01:02:09.969Z,101784.81
2023-02-18T01:04:36.475Z,101787.06
2023-02-18T01:07:02.979Z,101796.44
2023-02-18T01:09:29.393Z,101786.00
2023-02-18T01:11:55.861Z,101778.19
2023-02-18T01:14:22.638Z,101782.81
2023-02-18T01:16:49.106Z,101770.41
2023-02-18T01:19:15.513Z,101772.53
2023-02-18T01:21:41.883Z,101785.56
2023-02-18T01:24:08.230Z,101783.75
2023-02-18T01:26:34.712Z,101777.50
2023-02-18T01:29:01.188Z,101773.72
2023-02-18T01:31:27.878Z,101780.00
2023-02-18T01:33:54.465Z,101778.69
2023-02-18T01:36:21.108Z,101766.97
2023-02-18T01:38:47.467Z,101757.38
2023-02-18T01:41:13.976Z,101753.56
2023-02-18T01:43:40.446Z,101761.88
2023-02-18T01:46:14.913Z,101761.06
2023-02-18T01:48:42.969Z,101758.56
2023-02-18T01:51:13.823Z,101765.19
2023-02-18T01:53:49.397Z,101767.41
2023-02-18T01:56:33.725Z,101750.16
2023-02-18T01:59:03.389Z,101756.63
2023-02-18T02:01:32.289Z,101751.66
2023-02-18T02:03:59.267Z,101753.31
2023-02-18T02:06:26.642Z,101748.25
2023-02-18T02:08:57.448Z,101740.75
2023-02-18T02:11:27.875Z,101746.56
2023-02-18T02:13:57.190Z,101739.25
2023-02-18T02:16:42.549Z,101732.13
2023-02-18T02:19:23.211Z,101720.03
2023-02-18T02:22:04.953Z,101730.47
2023-02-18T02:24:46.494Z,101723.50
2023-02-18T02:27:20.425Z,101722.53
2023-02-18T02:30:15.151Z,101715.78
2023-02-18T02:33:07.424Z,101712.00
2023-02-18T02:35:44.515Z,101713.06
2023-02-18T02:38:22.956Z,101704.66
2023-02-18T02:41:18.369Z,101693.19
2023-02-18T02:43:53.070Z,101700.97
2023-02-18T02:46:35.146Z,101692.44
2023-02-18T02:49:23.762Z,101680.97
2023-02-18T02:52:03.401Z,101690.31
2023-02-18T02:54:30.714Z,101683.81
2023-02-18T02:57:15.888Z,101681.69
2023-02-18T02:59:47.715Z,101683.09
2023-02-18T03:02:23.734Z,101690.22
2023-02-18T03:05:13.161Z,101674.34
2023-02-18T03:07:54.895Z,101671.97
2023-02-18T03:10:36.559Z,101669.25
2023-02-18T03:13:15.739Z,101658.81
2023-02-18T03:16:01.598Z,101663.31
2023-02-18T03:18:39.183Z,101652.91
2023-02-18T03:21:15.272Z,101661.66
2023-02-18T03:24:00.918Z,101653.72
2023-02-18T03:26:30.416Z,101654.31
2023-02-18T03:29:02.568Z,101653.84
2023-02-18T03:31:32.036Z,101651.50
2023-02-18T03:34:07.685Z,101654.44
2023-02-18T03:36:35.680Z,101648.63
2023-02-18T03:39:10.598Z,101662.63
2023-02-18T03:41:37.609Z,101650.75
2023-02-18T03:44:07.045Z,101650.53
2023-02-18T03:46:34.935Z,101645.91
2023-02-18T03:49:01.483Z,101651.47
2023-02-18T03:51:28.267Z,101644.72
2023-02-18T03:53:54.864Z,101648.38
2023-02-18T03:56:21.576Z,101652.38
2023-02-18T03:58:48.009Z,101641.50
2023-02-18T04:01:14.569Z,101637.00
2023-02-18T04:03:41.143Z,101640.78
2023-02-18T04:06:08.102Z,101640.31
2023-02-18T04:08:34.862Z,101639.25
2023-02-18T04:11:01.779Z,101625.22
2023-02-18T04:13:28.655Z,101634.34
2023-02-18T04:15:55.101Z,101624.75
2023-02-18T04:18:22.166Z,101619.91
2023-02-18T04:20:48.941Z,101611.38
2023-02-18T04:23:15.476Z,101604.00
2023-02-18T04:25:41.943Z,101605.19
2023-02-18T04:28:11.245Z,101594.78
2023-02-18T04:30:37.923Z,101590.19
2023-02-18T04:33:04.530Z,101593.03
2023-02-18T04:35:30.985Z,101594.22
2023-02-18T04:37:57.543Z,101593.16
2023-02-18T04:40:25.507Z,101591.72
2023-02-18T04:42:52.135Z,101595.63
2023-02-18T04:45:18.697Z,101597.28
2023-02-18T04:47:45.052Z,101583.69
2023-02-18T04:50:11.548Z,101587.44
2023-02-18T04:52:38.065Z,101584.97
2023-02-18T04:55:04.716Z,101580.13
2023-02-18T04:57:31.229Z,101592.56
2023-02-18T04:59:57.821Z,101580.84
2023-02-18T05:02:24.296Z,101573.72
2023-02-18T05:04:50.780Z,101574.22
2023-02-18T05:07:17.382Z,101576.81
2023-02-18T05:09:43.824Z,101569.47
2023-02-18T05:12:10.202Z,101577.16
2023-02-18T05:14:36.638Z,101573.84
2023-02-18T05:17:03.252Z,101577.16
2023-02-18T05:19:29.702Z,101570.69
2023-02-18T05:21:56.215Z,101565.22
2023-02-18T05:24:22.811Z,101565.22
2023-02-18T05:26:49.207Z,101556.19
2023-02-18T05:29:15.688Z,101558.56
2023-02-18T05:31:42.387Z,101564.47
2023-02-18T05:34:09.011Z,101564.47
2023-02-18T05:36:35.609Z,101563.66
2023-02-18T05:39:02.050Z,101556.66
2023-02-18T05:41:28.392Z,101548.13
2023-02-18T05:44:13.612Z,101550.63
2023-02-18T05:46:40.153Z,101544.31
2023-02-18T05:49:06.588Z,101537.38
2023-02-18T05:51:33.254Z,101539.84
2023-02-18T05:53:59.650Z,101526.75
2023-02-18T05:56:25.984Z,101534.41
2023-02-18T05:58:52.474Z,101526.50
2023-02-18T06:01:18.931Z,101528.28
2023-02-18T06:03:45.320Z,101535.50
2023-02-18T06:06:12.083Z,101517.38
2023-02-18T06:08:38.802Z,101508.63
2023-02-18T06:11:05.325Z,101515.59
2023-02-18T06:13:31.922Z,101511.22
2023-02-18T06:15:58.485Z,101505.78
2023-02-18T06:18:25.149Z,101508.72
2023-02-18T06:20:51.551Z,101502.84
2023-02-18T06:23:18.777Z,101504.84
2023-02-18T06:25:45.263Z,101505.66
2023-02-18T06:28:11.701Z,101510.66
2023-02-18T06:30:38.162Z,101501.91
2023-02-18T06:33:04.900Z,101498.94
2023-02-18T06:35:31.782Z,101502.72
2023-02-18T06:37:58.290Z,101506.88
2023-02-18T06:40:24.660Z,101516.22
2023-02-18T06:42:51.225Z,101507.69
2023-02-18T06:45:17.632Z,101505.94
2023-02-18T06:47:44.186Z,101498.97
2023-02-18T06:50:10.889Z,101503.09
2023-02-18T06:52:38.147Z,101499.34
2023-02-18T06:55:05.930Z,101494.13
2023-02-18T06:57:32.426Z,101492.38
2023-02-18T06:59:58.938Z,101488.91
2023-02-18T07:02:25.320Z,101490.34
2023-02-18T07:04:51.699Z,101485.84
2023-02-18T07:07:18.134Z,101486.66
2023-02-18T07:09:44.547Z,101495.19
2023-02-18T07:12:10.894Z,101505.84
2023-02-18T07:14:37.493Z,101490.13
2023-02-18T07:17:03.885Z,101502.91
2023-02-18T07:19:30.228Z,101510.34
2023-02-18T07:21:57.781Z,101515.78
2023-02-18T07:24:24.527Z,101506.94
2023-02-18T07:26:50.901Z,101526.13
2023-02-18T07:29:17.446Z,101522.22
2023-02-18T07:31:43.997Z,101533.34
2023-02-18T07:34:10.355Z,101546.94
2023-02-18T07:36:36.873Z,101525.41
2023-02-18T07:39:03.341Z,101528.47
2023-02-18T07:41:29.776Z,101529.19
2023-02-18T07:43:56.248Z,101525.75
2023-02-18T07:46:22.643Z,101529.56
2023-02-18T07:48:49.012Z,101522.44
2023-02-18T07:51:15.501Z,101502.91
2023-02-18T07:53:42.900Z,101505.16
2023-02-18T07:56:09.614Z,101512.13
2023-02-18T07:58:37.931Z,101530.59
2023-02-18T08:01:06.273Z,101520.81
2023-02-18T08:03:34.605Z,101535.00
2023-02-18T08:06:02.749Z,101548.94
2023-02-18T08:08:30.939Z,101546.34
2023-02-18T08:11:02.650Z,101557.09
2023-02-18T08:13:30.109Z,101560.09
2023-02-18T08:15:57.081Z,101569.28
2023-02-18T08:18:25.475Z,101585.94
2023-02-18T08:20:52.425Z,101577.53
2023-02-18T08:23:21.356Z,101566.75
2023-02-18T08:25:50.435Z,101573.47
2023-02-18T08:28:21.953Z,101580.97
2023-02-18T08:30:50.377Z,101582.47
2023-02-18T08:33:17.723Z,101584.84
2023-02-18T08:35:44.855Z,101588.97
2023-02-18T08:38:11.495Z,101590.75
2023-02-18T08:40:37.906Z,101591.81
2023-02-18T08:43:04.232Z,101595.59
2023-02-18T08:45:30.614Z,101605.03
2023-02-18T08:48:19.392Z,101609.63
2023-02-18T08:50:43.332Z,101605.88
2023-02-18T08:53:09.708Z,101599.00
2023-02-18T08:55:38.027Z,101601.03
2023-02-18T08:58:05.037Z,101605.72
2023-02-18T09:00:31.483Z,101609.00
2023-02-18T09:02:57.946Z,101598.81
2023-02-18T09:05:24.339Z,101604.03
2023-02-18T09:07:50.722Z,101598.97
2023-02-18T09:10:17.209Z,101603.81
2023-02-18T09:12:43.620Z,101610.28
2023-02-18T09:15:10.136Z,101604.41
2023-02-18T09:17:36.589Z,101602.72
2023-02-18T09:20:04.008Z,101588.47
2023-02-18T09:22:30.500Z,101581.81
2023-02-18T09:24:56.855Z,101579.09
2023-02-18T09:27:23.304Z,101584.28
2023-02-18T09:29:50.798Z,101575.09
2023-02-18T09:32:28.800Z,101568.72
2023-02-18T09:35:00.466Z,101583.88
2023-02-18T09:37:26.837Z,101572.16
2023-02-18T09:39:53.251Z,101576.09
2023-02-18T09:42:22.814Z,101573.47
2023-02-18T09:44:52.638Z,101573.97
2023-02-18T09:47:35.023Z,101575.16
2023-02-18T09:50:09.014Z,101578.31
2023-02-18T09:52:38.356Z,101569.34
2023-02-18T09:55:28.357Z,101559.19
2023-02-18T09:57:59.522Z,101551.88
2023-02-18T10:00:34.976Z,101538.25
2023-02-18T10:03:11.362Z,101544.75
2023-02-18T10:05:42.476Z,101538.25
2023-02-18T10:08:39.817Z,101539.06
2023-02-18T10:11:16.455Z,101545.22
2023-02-18T10:13:43.798Z,101553.50
2023-02-18T10:16:18.195Z,101537.66
2023-02-18T10:18:52.865Z,101539.78
2023-02-18T10:21:24.174Z,101536.59
2023-02-18T10:23:54.594Z,101526.06
2023-02-18T10:26:21.834Z,101528.56
2023-02-18T10:28:49.341Z,101534.09
2023-02-18T10:31:23.342Z,101529.75
2023-02-18T10:34:02.686Z,101530.09
2023-02-18T10:36:44.758Z,101520.50
2023-02-18T10:39:45.107Z,101531.88
2023-02-18T10:42:17.598Z,101527.03
2023-02-18T10:45:51.874Z,101533.28
2023-02-18T10:48:39.094Z,101532.31
2023-02-18T10:51:25.895Z,101523.56
2023-02-18T10:53:53.769Z,101534.81
2023-02-18T10:56:29.306Z,101536.00
2023-02-18T10:59:05.570Z,101536.22
2023-02-18T11:01:32.093Z,101531.66
2023-02-18T11:04:15.836Z,101542.75
2023-02-18T11:06:46.733Z,101542.16
2023-02-18T11:09:47.445Z,101555.53
2023-02-18T11:12:24.606Z,101550.66
2023-02-18T11:15:08.170Z,101554.31
2023-02-18T11:17:37.805Z,101557.25
2023-02-18T11:20:47.274Z,101549.31
2023-02-18T11:23:18.005Z,101554.53
2023-02-18T11:26:15.678Z,101550.38
2023-02-18T11:28:48.362Z,101564.22
2023-02-18T11:31:26.913Z,101557.09
2023-02-18T11:33:57.593Z,101550.03
2023-02-18T11:36:35.303Z,101550.03
2023-02-18T11:39:18.430Z,101552.81
2023-02-18T11:41:53.252Z,101548.09
2023-02-18T11:44:24.099Z,101555.53
2023-02-18T11:47:03.436Z,101564.41
2023-02-18T11:49:32.232Z,101551.13
2023-02-18T11:52:12.386Z,101544.94
2023-02-18T11:54:38.809Z,101552.06
2023-02-18T11:57:12.235Z,101552.06
2023-02-18T11:59:40.788Z,101553.09
2023-02-18T12:02:10.073Z,101554.63
2023-02-18T12:04:51.869Z,101553.59
2023-02-18T12:07:30.155Z,101556.00
2023-02-18T12:10:00.178Z,101552.63
2023-02-18T12:12:30.973Z,101551.78
2023-02-18T12:14:59.772Z,101553.22
2023-02-18T12:17:52.244Z,101549.19
2023-02-18T12:20:37.368Z,101550.28
2023-02-18T12:23:13.178Z,101549.66
2023-02-18T12:25:56.441Z,101542.34
2023-02-18T12:28:39.733Z,101534.19
2023-02-18T12:31:33.398Z,101540.00
2023-02-18T12:34:31.107Z,101539.84
2023-02-18T12:37:31.780Z,101535.59
2023-02-18T12:40:28.562Z,101537.13
2023-02-18T12:43:06.311Z,101531.25
2023-02-18T12:45:56.452Z,101540.06
2023-02-18T12:48:49.237Z,101537.94
2023-02-18T12:51:36.167Z,101535.00
2023-02-18T12:54:35.262Z,101533.38
2023-02-18T12:57:16.889Z,101533.38
2023-02-18T13:00:04.770Z,101527.81
2023-02-18T13:03:03.957Z,101524.88
2023-02-18T13:05:56.321Z,101531.84
2023-02-18T13:08:58.723Z,101541.19
2023-02-18T13:11:36.245Z,101532.44
2023-02-18T13:14:26.394Z,101541.41
2023-02-18T13:16:57.404Z,101544.03
2023-02-18T13:19:44.995Z,101541.31
2023-02-18T13:22:12.825Z,101548.28
2023-02-18T13:24:43.570Z,101537.78
2023-02-18T13:27:17.613Z,101520.63
2023-02-18T13:29:59.926Z,101539.66
2023-02-18T13:33:09.207Z,101533.16
2023-02-18T13:35:39.308Z,101534.22
2023-02-18T13:38:24.134Z,101540.25
2023-02-18T13:40:51.398Z,101519.34
2023-02-18T13:43:33.411Z,101526.06
2023-02-18T13:46:18.897Z,101529.38
2023-02-18T13:48:53.258Z,101528.78
2023-02-18T13:51:38.734Z,101525.97
2023-02-18T13:54:12.184Z,101523.94
2023-02-18T13:56:54.790Z,101528.31
2023-02-18T13:59:42.814Z,101519.56
2023-02-18T14:02:21.635Z,101530.69
2023-02-18T14:05:15.218Z,101531.41
2023-02-18T14:07:47.462Z,101523.47
2023-02-18T14:10:13.815Z,101518.88
2023-02-18T14:13:01.246Z,101530.34
2023-02-18T14:15:27.575Z,101521.72
2023-02-18T14:18:15.356Z,101520.75
2023-02-18T14:20:51.137Z,101536.03
2023-02-18T14:23:20.524Z,101531.88
2023-02-18T14:25:57.245Z,101527.25
2023-02-18T14:28:37.663Z,101528.78
2023-02-18T14:31:30.470Z,101525.16
2023-02-18T14:34:10.982Z,101523.03
2023-02-18T14:36:49.409Z,101527.25
2023-02-18T14:39:31.066Z,101527.25
2023-02-18T14:42:24.598Z,101529.66
2023-02-18T14:45:36.543Z,101525.41
2023-02-18T14:48:42.597Z,101518.66
2023-02-18T14:51:10.429Z,101528.28
2023-02-18T14:53:44.734Z,101520.34
2023-02-18T14:56:15.889Z,101517.97
2023-02-18T14:58:46.605Z,101512.53
2023-02-18T15:01:34.272Z,101521.31
2023-02-18T15:04:01.904Z,101520.22
2023-02-18T15:06:28.296Z,101519.03
2023-02-18T15:08:55.067Z,101514.66
2023-02-18T15:11:24.362Z,101502.72
2023-02-18T15:13:51.512Z,101520.34
2023-02-18T15:16:34.140Z,101516.91
2023-02-18T15:19:03.540Z,101512.91
2023-02-18T15:21:34.687Z,101509.81
2023-02-18T15:24:18.828Z,101506.03
2023-02-18T15:26:50.255Z,101504.63
2023-02-18T15:29:22.653Z,101505.56
2023-02-18T15:31:49.540Z,101511.59
2023-02-18T15:34:33.031Z,101499.78
2023-02-18T15:37:01.155Z,101499.31
2023-02-18T15:39:28.333Z,101508.88
2023-02-18T15:41:56.519Z,101500.25
2023-02-18T15:44:27.058Z,101500.13
2023-02-18T15:46:53.988Z,101497.19
2023-02-18T15:49:24.296Z,101506.16
2023-02-18T15:51:55.794Z,101506.88
2023-02-18T15:54:23.835Z,101502.75
2023-02-18T15:56:53.634Z,101512.66
2023-02-18T15:59:21.766Z,101513.13
2023-02-18T16:01:57.037Z,101506.03
2023-02-18T16:04:30.038Z,101509.22
2023-02-18T16:06:56.576Z,101508.63
2023-02-18T16:09:29.610Z,101502.34
2023-02-18T16:11:59.612Z,101494.34
2023-02-18T16:14:40.432Z,101503.91
2023-02-18T16:17:16.745Z,101521.66
2023-02-18T16:20:03.530Z,101519.53
2023-02-18T16:22:30.953Z,101513.38
2023-02-18T16:25:00.788Z,101517.66
2023-02-18T16:27:36.211Z,101513.38
2023-02-18T16:30:14.794Z,101512.56
2023-02-18T16:32:41.160Z,101521.56
2023-02-18T16:35:07.898Z,101519.66
2023-02-18T16:37:40.226Z,101526.75
2023-02-18T16:40:15.687Z,101511.63
2023-02-18T16:42:42.040Z,101521.69
2023-02-18T16:45:12.377Z,101517.53
2023-02-18T16:47:39.932Z,101516.50
2023-02-18T16:50:14.004Z,101513.19
2023-02-18T16:52:40.380Z,101515.56
2023-02-18T16:55:27.916Z,101516.25
2023-02-18T16:57:54.662Z,101507.75
2023-02-18T17:00:22.322Z,101512.09
2023-02-18T17:02:50.697Z,101519.66
2023-02-18T17:05:26.375Z,101522.88
2023-02-18T17:07:54.506Z,101521.78
2023-02-18T17:10:21.323Z,101523.69
2023-02-18T17:12:47.698Z,101518.03
2023-02-18T17:15:37.987Z,101520.16
2023-02-18T17:18:04.738Z,101523.94
2023-02-18T17:20:32.976Z,101525.59
2023-02-18T17:22:59.711Z,101532.00
2023-02-18T17:25:32.660Z,101514.38
2023-02-18T17:27:59.037Z,101526.66
2023-02-18T17:30:25.509Z,101523.13
2023-02-18T17:32:52.438Z,101530.69
2023-02-18T17:35:21.773Z,101530.19
2023-02-18T17:37:48.879Z,101535.66
2023-02-18T17:40:26.222Z,101535.19
2023-02-18T17:42:54.675Z,101538.97
2023-02-18T17:45:28.723Z,101536.94
2023-02-18T17:47:57.028Z,101537.78
2023-02-18T17:50:24.127Z,101533.41
2023-02-18T17:52:50.902Z,101527.38
2023-02-18T17:55:24.975Z,101529.38
2023-02-18T17:57:52.576Z,101527.03
2023-02-18T18:00:28.162Z,101528.66
2023-02-18T18:02:55.282Z,101516.72
2023-02-18T18:05:26.302Z,101523.81
2023-02-18T18:07:53.671Z,101515.91
2023-02-18T18:10:22.110Z,101522.63
2023-02-18T18:12:49.599Z,101533.06
2023-02-18T18:15:29.726Z,101519.81
2023-02-18T18:17:57.084Z,101527.00
2023-02-18T18:20:25.838Z,101527.72
2023-02-18T18:22:54.278Z,101533.03
2023-02-18T18:25:25.543Z,101538.91
2023-02-18T18:27:52.792Z,101536.09
2023-02-18T18:30:26.160Z,101528.63
2023-02-18T18:32:52.764Z,101533.22
2023-02-18T18:35:33.126Z,101529.47
2023-02-18T18:38:00.430Z,101538.78
2023-02-18T18:40:30.334Z,101527.31
2023-02-18T18:42:58.842Z,101534.50
2023-02-18T18:45:34.228Z,101534.50
2023-02-18T18:48:01.198Z,101531.19
2023-02-18T18:50:28.220Z,101521.34
2023-02-18T18:52:54.981Z,101520.44
2023-02-18T18:55:27.296Z,101515.13
2023-02-18T18:57:54.680Z,101516.78
2023-02-18T19:00:25.047Z,101521.31
2023-02-18T19:02:51.524Z,101515.03
2023-02-18T19:05:27.810Z,101514.78
2023-02-18T19:07:54.776Z,101516.91
2023-02-18T19:10:22.390Z,101513.13
2023-02-18T19:12:49.739Z,101511.00
2023-02-18T19:15:20.737Z,101511.00
2023-02-18T19:17:50.847Z,101511.72
2023-02-18T19:20:21.334Z,101518.00
2023-02-18T19:22:48.199Z,101518.38
2023-02-18T19:25:15.243Z,101514.13
2023-02-18T19:27:43.482Z,101519.44
2023-02-18T19:30:13.853Z,101528.63
2023-02-18T19:32:40.549Z,101522.13
2023-02-18T19:35:07.070Z,101510.44
2023-02-18T19:37:34.540Z,101505.22
2023-02-18T19:40:01.188Z,101502.28
2023-02-18T19:42:28.674Z,101507.59
2023-02-18T19:44:55.792Z,101493.91
2023-02-18T19:47:26.367Z,101491.19
2023-02-18T19:49:53.575Z,101496.63
2023-02-18T19:52:21.602Z,101505.25
2023-02-18T19:54:48.091Z,101502.31
2023-02-18T19:57:14.638Z,101509.00
2023-02-18T19:59:41.277Z,101506.06
2023-02-18T20:02:10.392Z,101508.19
2023-02-18T20:04:36.740Z,101501.44
2023-02-18T20:07:03.960Z,101498.28
2023-02-18T20:09:30.344Z,101501.00
2023-02-18T20:11:56.709Z,101499.34
2023-02-18T20:14:26.907Z,101500.41
2023-02-18T20:16:53.853Z,101500.16
2023-02-18T20:19:26.301Z,101495.19
2023-02-18T20:21:52.791Z,101501.13
2023-02-18T20:24:19.162Z,101497.91
2023-02-18T20:26:45.664Z,101493.53
2023-02-18T20:29:12.037Z,101495.66
2023-02-18T20:31:39.212Z,101481.59
2023-02-18T20:34:05.887Z,101476.75
2023-02-18T20:36:32.286Z,101482.19
2023-02-18T20:39:07.616Z,101477.22
2023-02-18T20:41:40.959Z,101473.19
2023-02-18T20:44:09.931Z,101470.69
2023-02-18T20:46:37.879Z,101461.94
2023-02-18T20:49:11.671Z,101464.81
2023-02-18T20:51:38.025Z,101461.50
2023-02-18T20:54:09.923Z,101458.19
2023-02-18T20:56:37.868Z,101453.34
2023-02-18T20:59:05.425Z,101453.34
2023-02-18T21:01:32.604Z,101454.38
2023-02-18T21:03:59.021Z,101457.09
2023-02-18T21:06:25.639Z,101453.69
2023-02-18T21:08:53.684Z,101454.50
2023-02-18T21:11:26.020Z,101456.16
2023-02-18T21:13:55.061Z,101443.63
2023-02-18T21:16:23.182Z,101444.00
2023-02-18T21:18:50.030Z,101440.41
2023-02-18T21:21:17.093Z,101441.50
2023-02-18T21:23:43.670Z,101436.88
2023-02-18T21:26:16.179Z,101442.31
2023-02-18T21:28:45.897Z,101437.97
2023-02-18T21:31:27.879Z,101447.53
2023-02-18T21:33:54.409Z,101425.41
2023-02-18T21:36:21.575Z,101424.00
2023-02-18T21:38:52.810Z,101418.91
2023-02-18T21:41:19.816Z,101422.22
2023-02-18T21:43:47.084Z,101417.38
2023-02-18T21:46:20.058Z,101428.59
2023-02-18T21:49:01.916Z,101429.91
2023-02-18T21:51:54.721Z,101435.91
2023-02-18T21:54:37.358Z,101436.16
2023-02-18T21:57:04.927Z,101443.13
2023-02-18T21:59:32.898Z,101441.97
2023-02-18T22:02:00.464Z,101450.03
2023-02-18T22:04:29.489Z,101447.75
2023-02-18T22:06:55.920Z,101442.22
2023-02-18T22:09:22.720Z,101437.59
2023-02-18T22:11:49.312Z,101435.56
2023-02-18T22:14:17.021Z,101430.13
2023-02-18T22:16:43.770Z,101428.63
2023-02-18T22:19:11.748Z,101438.19
2023-02-18T22:21:38.483Z,101436.50
2023-02-18T22:24:06.563Z,101426.13
2023-02-18T22:26:33.466Z,101421.88
2023-02-18T22:29:00.864Z,101408.50
2023-02-18T22:31:29.188Z,101414.75
2023-02-18T22:33:57.153Z,101423.63
2023-02-18T22:36:24.839Z,101413.56
2023-02-18T22:38:53.632Z,101413.56
2023-02-18T22:41:22.549Z,101407.69
2023-02-18T22:43:53.491Z,101421.13
2023-02-18T22:46:19.920Z,101406.94
2023-02-18T22:48:46.316Z,101405.78
2023-02-18T22:51:16.662Z,101399.38
2023-02-18T22:53:44.056Z,101401.06
2023-02-18T22:56:13.470Z,101402.00
2023-02-18T22:58:41.431Z,101389.34
2023-02-18T23:01:09.280Z,101381.19
2023-02-18T23:03:35.940Z,101376.34
2023-02-18T23:06:05.981Z,101367.34
2023-02-18T23:08:33.533Z,101369.47
2023-02-18T23:11:05.342Z,101375.41
2023-02-18T23:13:32.078Z,101382.13
2023-02-18T23:16:00.015Z,101387.81
2023-02-18T23:18:27.430Z,101397.25
2023-02-18T23:21:17.408Z,101387.22
2023-02-18T23:23:52.371Z,101379.66
2023-02-18T23:26:21.271Z,101386.38
2023-02-18T23:28:47.742Z,101388.50
2023-02-18T23:31:20.159Z,101392.06
2023-02-18T23:33:49.427Z,101391.34
2023-02-18T23:36:18.400Z,101396.78
2023-02-18T23:38:49.407Z,101394.88
2023-02-18T23:41:16.575Z,101390.75
2023-02-18T23:43:43.770Z,101389.34
2023-02-18T23:46:10.462Z,101390.16
2023-02-18T23:48:38.415Z,101386.38
2023-02-18T23:51:07.026Z,101382.13
2023-02-18T23:53:34.871Z,101378.72
2023-02-18T23:56:09.248Z,101376.81
2023-02-18T23:58:35.728Z,101377.03
